Aeroporto :
LOGIN :

Iscrizione | Disclaimer

   EN    FR    IT 

 










Sommario :    VFR   VFR Marginale   IFR   IFR Intensivo   IFR Molto Intensivo
Visibilità : 
Base nubi : 
>= 8 km
>= 3000ft
5 / 8 km
1000 / 3000 ft
1500m / 5 km
500 / 1000 ft
800 / 1500m
200 / 500 ft
< 800m
< 200 ft
Simboli :   Temporali  Nebbia  Neve Forte  Precipitazioni Forti  Vento > 20 kt
SIGMETs :   Varie  Temporali  Ghiacco  Turbolenza  Onda orograficha  Ceneri Vulcaniche






- Altitudine del aeroporto : 200 ft


EBBL - Klein Brogel AB

ULTIMO METAR :
  • 270555Z AUTO VRB02KT 9999 FEW078/// 14/10 Q1034 BLU

METARs OBSOLETI :
  • 270525Z AUTO VRB02KT 9999 SCT079/// 13/10 Q1034 BLU
  • 270455Z AUTO VRB01KT 8000 BKN079/// 11/09 Q1034 BLU
  • 270453Z AUTO VRB01KT 7000 OVC079/// 11/09 Q1034 WHT
  • 270425Z AUTO VRB01KT 7000 OVC080/// 10/09 Q1034 WHT
  • 270355Z AUTO VRB01KT 7000 FEW080/// 10/08 Q1033 WHT
  • 270346Z AUTO 00000KT 7000 NCD 09/08 Q1033 WHT
  • 270335Z AUTO VRB01KT 3100 NCD 09/08 Q1033 YLO

TAF TAF EBBL
Valido dal 26 a 19 ore il 27 a 07 ore UTC


261541Z 2619/2707 10005KT 9999 FEW220
BECMG 2701/2703 FEW070



MetMap, La meteo Aeronautica in un colpo d'occhio ! - Copyright ORBIFLY Dicembre 2007 - Disclaimer

ORBIFLY MET'MAP TEAM :

Programmazione e sviluppo : Alexandra Zaïnal
Concezione : Baudouin d'Aumeries
Aiuto per la programmazione : Marc-Olivier Méhu
Supporto tecnico e logistico : Manuel Goepfert
Aiuto per la traduzione : Arnaldo La Scala

Contatto : metmap@orbifly.com




FONTI E CREDITI :

   NOAA